sensor_id;sensor_type;location;lat;lon;timestamp;pressure;altitude;pressure_sealevel;temperature;humidity
3598;BME280;1813;52.016;8.714;2023-02-15T00:01:24;-16261.94;;;-139.71;69.00
3598;BME280;1813;52.016;8.714;2023-02-15T00:03:58;-16261.94;;;-139.71;68.85
3598;BME280;1813;52.016;8.714;2023-02-15T00:06:33;-16261.94;;;-139.71;68.71
3598;BME280;1813;52.016;8.714;2023-02-15T00:09:08;-16261.94;;;-139.71;68.73
3598;BME280;1813;52.016;8.714;2023-02-15T00:11:44;-16261.94;;;-139.71;68.70
3598;BME280;1813;52.016;8.714;2023-02-15T00:14:22;-16261.94;;;-139.71;68.71
3598;BME280;1813;52.016;8.714;2023-02-15T00:16:58;-16261.94;;;-139.71;68.70
3598;BME280;1813;52.016;8.714;2023-02-15T00:19:33;-16261.94;;;-139.71;68.88
3598;BME280;1813;52.016;8.714;2023-02-15T00:22:07;-16261.94;;;-139.71;69.05
3598;BME280;1813;52.016;8.714;2023-02-15T00:24:41;-16261.94;;;-139.71;69.10
3598;BME280;1813;52.016;8.714;2023-02-15T00:27:15;-16261.94;;;-139.71;69.08
3598;BME280;1813;52.016;8.714;2023-02-15T00:29:49;-16261.94;;;-139.71;69.03
3598;BME280;1813;52.016;8.714;2023-02-15T00:32:25;-16261.94;;;-139.71;69.17
3598;BME280;1813;52.016;8.714;2023-02-15T00:34:59;-16261.94;;;-139.71;69.29
3598;BME280;1813;52.016;8.714;2023-02-15T00:37:33;-16261.94;;;-139.71;69.62
3598;BME280;1813;52.016;8.714;2023-02-15T00:40:08;-16261.94;;;-139.71;69.77
3598;BME280;1813;52.016;8.714;2023-02-15T00:42:42;-16261.94;;;-139.71;69.92
3598;BME280;1813;52.016;8.714;2023-02-15T00:45:16;-16261.94;;;-139.71;70.23
3598;BME280;1813;52.016;8.714;2023-02-15T00:47:54;-16261.94;;;-139.71;70.30
3598;BME280;1813;52.016;8.714;2023-02-15T00:50:28;-16261.94;;;-139.71;70.42
3598;BME280;1813;52.016;8.714;2023-02-15T00:53:02;-16261.94;;;-139.71;70.45
3598;BME280;1813;52.016;8.714;2023-02-15T00:55:36;-16261.94;;;-139.71;70.58
3598;BME280;1813;52.016;8.714;2023-02-15T00:58:11;-16261.94;;;-139.71;70.71
3598;BME280;1813;52.016;8.714;2023-02-15T01:00:46;-16261.94;;;-139.71;70.58
3598;BME280;1813;52.016;8.714;2023-02-15T01:03:23;-16261.94;;;-139.71;70.70
3598;BME280;1813;52.016;8.714;2023-02-15T01:05:56;-16261.94;;;-139.71;70.61
3598;BME280;1813;52.016;8.714;2023-02-15T01:08:31;-16261.94;;;-139.71;70.90
3598;BME280;1813;52.016;8.714;2023-02-15T01:11:05;-16261.94;;;-139.71;70.88
3598;BME280;1813;52.016;8.714;2023-02-15T01:13:40;-16261.94;;;-139.71;70.89
3598;BME280;1813;52.016;8.714;2023-02-15T01:16:14;-16261.94;;;-139.71;70.97
3598;BME280;1813;52.016;8.714;2023-02-15T01:18:51;-16261.94;;;-139.71;70.90
3598;BME280;1813;52.016;8.714;2023-02-15T01:21:25;-16261.94;;;-139.71;71.13
3598;BME280;1813;52.016;8.714;2023-02-15T01:24:00;-16261.94;;;-139.71;71.09
3598;BME280;1813;52.016;8.714;2023-02-15T01:26:33;-16261.94;;;-139.71;71.07
3598;BME280;1813;52.016;8.714;2023-02-15T01:29:07;-16261.94;;;-139.71;71.16
3598;BME280;1813;52.016;8.714;2023-02-15T01:31:41;-16261.94;;;-139.71;71.27
3598;BME280;1813;52.016;8.714;2023-02-15T01:34:17;-16261.94;;;-139.71;71.09
3598;BME280;1813;52.016;8.714;2023-02-15T01:36:51;-16261.94;;;-139.71;71.18
3598;BME280;1813;52.016;8.714;2023-02-15T01:39:25;-16261.94;;;-139.71;71.32
3598;BME280;1813;52.016;8.714;2023-02-15T01:42:00;-16261.94;;;-139.71;71.53
3598;BME280;1813;52.016;8.714;2023-02-15T01:44:56;-16261.94;;;-139.71;71.86
3598;BME280;1813;52.016;8.714;2023-02-15T01:47:35;-16261.94;;;-139.71;71.88
3598;BME280;1813;52.016;8.714;2023-02-15T01:50:15;-16261.94;;;-139.71;71.97
3598;BME280;1813;52.016;8.714;2023-02-15T01:52:56;-16261.94;;;-139.71;71.90
3598;BME280;1813;52.016;8.714;2023-02-15T01:55:33;-16261.94;;;-139.71;72.04
3598;BME280;1813;52.016;8.714;2023-02-15T01:58:10;-16261.94;;;-139.71;72.22
3598;BME280;1813;52.016;8.714;2023-02-15T02:00:45;-16261.94;;;-139.71;72.28
3598;BME280;1813;52.016;8.714;2023-02-15T02:03:27;-16261.94;;;-139.71;72.45
3598;BME280;1813;52.016;8.714;2023-02-15T02:06:10;-16261.94;;;-139.71;72.50
3598;BME280;1813;52.016;8.714;2023-02-15T02:08:44;-16261.94;;;-139.71;72.52
3598;BME280;1813;52.016;8.714;2023-02-15T02:11:19;-16261.94;;;-139.71;72.59
3598;BME280;1813;52.016;8.714;2023-02-15T02:13:56;-16261.94;;;-139.71;72.84
3598;BME280;1813;52.016;8.714;2023-02-15T02:16:37;-16261.94;;;-139.71;72.97
3598;BME280;1813;52.016;8.714;2023-02-15T02:19:45;-16261.94;;;-139.71;73.24
3598;BME280;1813;52.016;8.714;2023-02-15T02:22:43;-16261.94;;;-139.71;73.06
3598;BME280;1813;52.016;8.714;2023-02-15T02:25:38;-16261.94;;;-139.71;73.17
3598;BME280;1813;52.016;8.714;2023-02-15T02:28:35;-16261.94;;;-139.71;73.18
3598;BME280;1813;52.016;8.714;2023-02-15T02:31:36;-16261.94;;;-139.71;73.34
3598;BME280;1813;52.016;8.714;2023-02-15T02:34:26;-16261.94;;;-139.71;73.41
3598;BME280;1813;52.016;8.714;2023-02-15T02:37:08;-16261.94;;;-139.71;73.41
3598;BME280;1813;52.016;8.714;2023-02-15T02:39:50;-16261.94;;;-139.71;73.45
3598;BME280;1813;52.016;8.714;2023-02-15T02:42:32;-16261.94;;;-139.71;73.58
3598;BME280;1813;52.016;8.714;2023-02-15T02:45:11;-16261.94;;;-139.71;73.73
3598;BME280;1813;52.016;8.714;2023-02-15T02:47:50;-16261.94;;;-139.71;73.86
3598;BME280;1813;52.016;8.714;2023-02-15T02:50:30;-16261.94;;;-139.71;73.76
3598;BME280;1813;52.016;8.714;2023-02-15T02:53:04;-16261.94;;;-139.71;73.88
3598;BME280;1813;52.016;8.714;2023-02-15T02:55:40;-16261.94;;;-139.71;73.93
3598;BME280;1813;52.016;8.714;2023-02-15T02:58:18;-16261.94;;;-139.71;74.03
3598;BME280;1813;52.016;8.714;2023-02-15T03:00:56;-16261.94;;;-139.71;74.17
3598;BME280;1813;52.016;8.714;2023-02-15T03:03:39;-16261.94;;;-139.71;74.38
3598;BME280;1813;52.016;8.714;2023-02-15T03:06:20;-16261.94;;;-139.71;74.43
3598;BME280;1813;52.016;8.714;2023-02-15T03:09:01;-16261.94;;;-139.71;74.59
3598;BME280;1813;52.016;8.714;2023-02-15T03:11:38;-16261.94;;;-139.71;74.68
3598;BME280;1813;52.016;8.714;2023-02-15T03:14:13;-16261.94;;;-139.71;74.66
3598;BME280;1813;52.016;8.714;2023-02-15T03:16:50;-16261.94;;;-139.71;74.85
3598;BME280;1813;52.016;8.714;2023-02-15T03:19:27;-16261.94;;;-139.71;74.90
3598;BME280;1813;52.016;8.714;2023-02-15T03:22:10;-16261.94;;;-139.71;74.97
3598;BME280;1813;52.016;8.714;2023-02-15T03:24:51;-16261.94;;;-139.71;75.14
3598;BME280;1813;52.016;8.714;2023-02-15T03:27:31;-16261.94;;;-139.71;75.28
3598;BME280;1813;52.016;8.714;2023-02-15T03:30:08;-16261.94;;;-139.71;75.58
3598;BME280;1813;52.016;8.714;2023-02-15T03:32:44;-16261.94;;;-139.71;75.58
3598;BME280;1813;52.016;8.714;2023-02-15T03:35:24;-16261.94;;;-139.71;75.73
3598;BME280;1813;52.016;8.714;2023-02-15T03:38:06;-16261.94;;;-139.71;75.71
3598;BME280;1813;52.016;8.714;2023-02-15T03:40:43;-16261.94;;;-139.71;75.76
3598;BME280;1813;52.016;8.714;2023-02-15T03:43:37;-16261.94;;;-139.71;75.81
3598;BME280;1813;52.016;8.714;2023-02-15T03:46:18;-16261.94;;;-139.71;76.05
3598;BME280;1813;52.016;8.714;2023-02-15T03:48:55;-16261.94;;;-139.71;76.31
3598;BME280;1813;52.016;8.714;2023-02-15T03:51:34;-16261.94;;;-139.71;76.27
3598;BME280;1813;52.016;8.714;2023-02-15T03:54:16;-16261.94;;;-139.71;76.38
3598;BME280;1813;52.016;8.714;2023-02-15T03:57:11;-16261.94;;;-139.71;76.46
3598;BME280;1813;52.016;8.714;2023-02-15T03:59:58;-16261.94;;;-139.71;76.63
3598;BME280;1813;52.016;8.714;2023-02-15T04:02:55;-16261.94;;;-139.71;76.67
3598;BME280;1813;52.016;8.714;2023-02-15T04:05:32;-16261.94;;;-139.71;76.87
3598;BME280;1813;52.016;8.714;2023-02-15T04:08:06;-16261.94;;;-139.71;76.92
3598;BME280;1813;52.016;8.714;2023-02-15T04:10:42;-16261.94;;;-139.71;77.05
3598;BME280;1813;52.016;8.714;2023-02-15T04:13:24;-16261.94;;;-139.71;77.00
3598;BME280;1813;52.016;8.714;2023-02-15T04:15:58;-16261.94;;;-139.71;77.10
3598;BME280;1813;52.016;8.714;2023-02-15T04:18:37;-16261.94;;;-139.71;77.21
3598;BME280;1813;52.016;8.714;2023-02-15T04:21:25;-16261.94;;;-139.71;77.28
3598;BME280;1813;52.016;8.714;2023-02-15T04:24:12;-16261.94;;;-139.71;77.40
3598;BME280;1813;52.016;8.714;2023-02-15T04:27:03;-16261.94;;;-139.71;77.54
3598;BME280;1813;52.016;8.714;2023-02-15T04:29:37;-16261.94;;;-139.71;77.68
3598;BME280;1813;52.016;8.714;2023-02-15T04:32:10;-16261.94;;;-139.71;77.73
3598;BME280;1813;52.016;8.714;2023-02-15T04:34:44;-16261.94;;;-139.71;77.78
3598;BME280;1813;52.016;8.714;2023-02-15T04:37:18;-16261.94;;;-139.71;77.95
3598;BME280;1813;52.016;8.714;2023-02-15T04:39:52;-16261.94;;;-139.71;77.99
3598;BME280;1813;52.016;8.714;2023-02-15T04:42:28;-16261.94;;;-139.71;78.09
3598;BME280;1813;52.016;8.714;2023-02-15T04:45:02;-16261.94;;;-139.71;78.23
3598;BME280;1813;52.016;8.714;2023-02-15T04:47:36;-16261.94;;;-139.71;78.38
3598;BME280;1813;52.016;8.714;2023-02-15T04:50:11;-16261.94;;;-139.71;78.46
3598;BME280;1813;52.016;8.714;2023-02-15T04:52:45;-16261.94;;;-139.71;78.56
3598;BME280;1813;52.016;8.714;2023-02-15T04:55:19;-16261.94;;;-139.71;78.56
3598;BME280;1813;52.016;8.714;2023-02-15T04:57:55;-16261.94;;;-139.71;78.66
3598;BME280;1813;52.016;8.714;2023-02-15T05:00:29;-16261.94;;;-139.71;78.75
3598;BME280;1813;52.016;8.714;2023-02-15T05:03:03;-16261.94;;;-139.71;78.73
3598;BME280;1813;52.016;8.714;2023-02-15T05:05:36;-16261.94;;;-139.71;78.78
3598;BME280;1813;52.016;8.714;2023-02-15T05:08:11;-16261.94;;;-139.71;78.70
3598;BME280;1813;52.016;8.714;2023-02-15T05:10:45;-16261.94;;;-139.71;78.81
3598;BME280;1813;52.016;8.714;2023-02-15T05:13:23;-16261.94;;;-139.71;78.75
3598;BME280;1813;52.016;8.714;2023-02-15T05:15:58;-16261.94;;;-139.71;78.85
3598;BME280;1813;52.016;8.714;2023-02-15T05:18:32;-16261.94;;;-139.71;78.79
3598;BME280;1813;52.016;8.714;2023-02-15T05:21:06;-16261.94;;;-139.71;78.88
3598;BME280;1813;52.016;8.714;2023-02-15T05:23:40;-16261.94;;;-139.71;79.00
3598;BME280;1813;52.016;8.714;2023-02-15T05:26:17;-16261.94;;;-139.71;78.98
3598;BME280;1813;52.016;8.714;2023-02-15T05:29:06;-16261.94;;;-139.71;79.07
3598;BME280;1813;52.016;8.714;2023-02-15T05:31:40;-16261.94;;;-139.71;79.15
3598;BME280;1813;52.016;8.714;2023-02-15T05:34:17;-16261.94;;;-139.71;79.31
3598;BME280;1813;52.016;8.714;2023-02-15T05:36:51;-16261.94;;;-139.71;79.42
3598;BME280;1813;52.016;8.714;2023-02-15T05:39:26;-16261.94;;;-139.71;79.42
3598;BME280;1813;52.016;8.714;2023-02-15T05:42:00;-16261.94;;;-139.71;79.51
3598;BME280;1813;52.016;8.714;2023-02-15T05:44:36;-16261.94;;;-139.71;79.52
3598;BME280;1813;52.016;8.714;2023-02-15T05:47:10;-16261.94;;;-139.71;79.60
3598;BME280;1813;52.016;8.714;2023-02-15T05:49:44;-16261.94;;;-139.71;79.65
3598;BME280;1813;52.016;8.714;2023-02-15T05:52:17;-16261.94;;;-139.71;79.65
3598;BME280;1813;52.016;8.714;2023-02-15T05:54:51;-16261.94;;;-139.71;79.63
3598;BME280;1813;52.016;8.714;2023-02-15T05:57:25;-16261.94;;;-139.71;79.70
3598;BME280;1813;52.016;8.714;2023-02-15T06:00:03;-16261.94;;;-139.71;79.74
3598;BME280;1813;52.016;8.714;2023-02-15T06:02:42;-16261.94;;;-139.71;79.89
3598;BME280;1813;52.016;8.714;2023-02-15T06:05:16;-16261.94;;;-139.71;79.93
3598;BME280;1813;52.016;8.714;2023-02-15T06:07:49;-16261.94;;;-139.71;79.84
3598;BME280;1813;52.016;8.714;2023-02-15T06:10:23;-16261.94;;;-139.71;79.87
3598;BME280;1813;52.016;8.714;2023-02-15T06:12:57;-16261.94;;;-139.71;79.94
3598;BME280;1813;52.016;8.714;2023-02-15T06:15:33;-16261.94;;;-139.71;80.01
3598;BME280;1813;52.016;8.714;2023-02-15T06:18:07;-16261.94;;;-139.71;80.01
3598;BME280;1813;52.016;8.714;2023-02-15T06:20:42;-16261.94;;;-139.71;80.14
3598;BME280;1813;52.016;8.714;2023-02-15T06:23:16;-16261.94;;;-139.71;80.24
3598;BME280;1813;52.016;8.714;2023-02-15T06:25:50;-16261.94;;;-139.71;80.17
3598;BME280;1813;52.016;8.714;2023-02-15T06:28:24;-16261.94;;;-139.71;80.08
3598;BME280;1813;52.016;8.714;2023-02-15T06:31:01;-16261.94;;;-139.71;79.85
3598;BME280;1813;52.016;8.714;2023-02-15T06:33:36;-16261.94;;;-139.71;79.75
3598;BME280;1813;52.016;8.714;2023-02-15T06:36:09;-16261.94;;;-139.71;79.73
3598;BME280;1813;52.016;8.714;2023-02-15T06:38:43;-16261.94;;;-139.71;79.69
3598;BME280;1813;52.016;8.714;2023-02-15T06:41:19;-16261.94;;;-139.71;79.85
3598;BME280;1813;52.016;8.714;2023-02-15T06:43:53;-16261.94;;;-139.71;79.79
3598;BME280;1813;52.016;8.714;2023-02-15T06:46:31;-16261.94;;;-139.71;79.75
3598;BME280;1813;52.016;8.714;2023-02-15T06:49:05;-16261.94;;;-139.71;79.83
3598;BME280;1813;52.016;8.714;2023-02-15T06:51:39;-16261.94;;;-139.71;80.01
3598;BME280;1813;52.016;8.714;2023-02-15T06:54:13;-16261.94;;;-139.71;80.14
3598;BME280;1813;52.016;8.714;2023-02-15T06:56:47;-16261.94;;;-139.71;80.16
3598;BME280;1813;52.016;8.714;2023-02-15T06:59:21;-16261.94;;;-139.71;80.05
3598;BME280;1813;52.016;8.714;2023-02-15T07:01:57;-16261.94;;;-139.71;80.07
3598;BME280;1813;52.016;8.714;2023-02-15T07:04:31;-16261.94;;;-139.71;80.16
3598;BME280;1813;52.016;8.714;2023-02-15T07:07:08;-16261.94;;;-139.71;80.15
3598;BME280;1813;52.016;8.714;2023-02-15T07:09:43;-16261.94;;;-139.71;80.27
3598;BME280;1813;52.016;8.714;2023-02-15T07:12:17;-16261.94;;;-139.71;80.45
3598;BME280;1813;52.016;8.714;2023-02-15T07:15:03;-16261.94;;;-139.71;80.55
3598;BME280;1813;52.016;8.714;2023-02-15T07:17:41;-16261.94;;;-139.71;80.75
3598;BME280;1813;52.016;8.714;2023-02-15T07:20:17;-16261.94;;;-139.71;80.83
3598;BME280;1813;52.016;8.714;2023-02-15T07:22:51;-16261.94;;;-139.71;81.02
3598;BME280;1813;52.016;8.714;2023-02-15T07:25:25;-16261.94;;;-139.71;81.30
3598;BME280;1813;52.016;8.714;2023-02-15T07:27:59;-16261.94;;;-139.71;81.45
3598;BME280;1813;52.016;8.714;2023-02-15T07:30:34;-16261.94;;;-139.71;81.34
3598;BME280;1813;52.016;8.714;2023-02-15T07:33:10;-16261.94;;;-139.71;81.55
3598;BME280;1813;52.016;8.714;2023-02-15T07:35:58;-16261.94;;;-139.71;81.56
3598;BME280;1813;52.016;8.714;2023-02-15T07:38:34;-16261.94;;;-139.71;81.71
3598;BME280;1813;52.016;8.714;2023-02-15T07:41:11;-16261.94;;;-139.71;81.88
3598;BME280;1813;52.016;8.714;2023-02-15T07:43:46;-16261.94;;;-139.71;81.69
3598;BME280;1813;52.016;8.714;2023-02-15T07:46:20;-16261.94;;;-139.71;81.58
3598;BME280;1813;52.016;8.714;2023-02-15T07:48:56;-16261.94;;;-139.71;81.00
3598;BME280;1813;52.016;8.714;2023-02-15T07:51:30;-16261.94;;;-139.71;80.54
3598;BME280;1813;52.016;8.714;2023-02-15T07:54:04;-16261.94;;;-139.71;79.97
3598;BME280;1813;52.016;8.714;2023-02-15T07:56:37;-16261.94;;;-139.71;79.36
3598;BME280;1813;52.016;8.714;2023-02-15T07:59:11;-16261.94;;;-139.71;78.56
3598;BME280;1813;52.016;8.714;2023-02-15T08:01:45;-16261.94;;;-139.71;77.72
3598;BME280;1813;52.016;8.714;2023-02-15T08:04:22;-16261.94;;;-139.71;77.03
3598;BME280;1813;52.016;8.714;2023-02-15T08:06:56;-16261.94;;;-139.71;76.45
3598;BME280;1813;52.016;8.714;2023-02-15T08:09:30;-16261.94;;;-139.71;75.67
3598;BME280;1813;52.016;8.714;2023-02-15T08:12:06;-16261.94;;;-139.71;75.13
3598;BME280;1813;52.016;8.714;2023-02-15T08:14:39;-16261.94;;;-139.71;74.87
3598;BME280;1813;52.016;8.714;2023-02-15T08:17:13;-16261.94;;;-139.71;74.16
3598;BME280;1813;52.016;8.714;2023-02-15T08:19:51;-16261.94;;;-139.71;73.78
3598;BME280;1813;52.016;8.714;2023-02-15T08:22:25;-16261.94;;;-139.71;73.28
3598;BME280;1813;52.016;8.714;2023-02-15T08:25:00;-16261.94;;;-139.71;72.46
3598;BME280;1813;52.016;8.714;2023-02-15T08:27:33;-16261.94;;;-139.71;71.75
3598;BME280;1813;52.016;8.714;2023-02-15T08:30:08;-16261.94;;;-139.71;70.90
3598;BME280;1813;52.016;8.714;2023-02-15T08:32:44;-16261.94;;;-139.71;70.03
3598;BME280;1813;52.016;8.714;2023-02-15T08:35:21;-16261.94;;;-139.71;69.68
3598;BME280;1813;52.016;8.714;2023-02-15T08:37:54;-16261.94;;;-139.71;69.42
3598;BME280;1813;52.016;8.714;2023-02-15T08:40:28;-16261.94;;;-139.71;69.00
3598;BME280;1813;52.016;8.714;2023-02-15T08:43:03;-16261.94;;;-139.71;68.75
3598;BME280;1813;52.016;8.714;2023-02-15T08:45:38;-16261.94;;;-139.71;68.70
3598;BME280;1813;52.016;8.714;2023-02-15T08:48:12;-16261.94;;;-139.71;68.36
3598;BME280;1813;52.016;8.714;2023-02-15T08:50:49;-16261.94;;;-139.71;67.92
3598;BME280;1813;52.016;8.714;2023-02-15T08:53:23;-16261.94;;;-139.71;67.72
3598;BME280;1813;52.016;8.714;2023-02-15T08:55:58;-16261.94;;;-139.71;67.19
3598;BME280;1813;52.016;8.714;2023-02-15T08:58:32;-16261.94;;;-139.71;67.27
3598;BME280;1813;52.016;8.714;2023-02-15T09:01:10;-16261.94;;;-139.71;67.34
3598;BME280;1813;52.016;8.714;2023-02-15T09:03:45;-16261.94;;;-139.71;66.40
3598;BME280;1813;52.016;8.714;2023-02-15T09:06:23;-16261.94;;;-139.71;66.16
3598;BME280;1813;52.016;8.714;2023-02-15T09:08:56;-16261.94;;;-139.71;65.58
3598;BME280;1813;52.016;8.714;2023-02-15T09:11:33;-16261.94;;;-139.71;65.10
3598;BME280;1813;52.016;8.714;2023-02-15T09:14:10;-16261.94;;;-139.71;64.74
3598;BME280;1813;52.016;8.714;2023-02-15T09:16:45;-16261.94;;;-139.71;64.52
3598;BME280;1813;52.016;8.714;2023-02-15T09:19:24;-16261.94;;;-139.71;64.33
3598;BME280;1813;52.016;8.714;2023-02-15T09:22:03;-16261.94;;;-139.71;63.50
3598;BME280;1813;52.016;8.714;2023-02-15T09:24:36;-16261.94;;;-139.71;63.03
3598;BME280;1813;52.016;8.714;2023-02-15T09:27:10;-16261.94;;;-139.71;62.93
3598;BME280;1813;52.016;8.714;2023-02-15T09:29:44;-16261.94;;;-139.71;63.36
3598;BME280;1813;52.016;8.714;2023-02-15T09:32:18;-16261.94;;;-139.71;62.71
3598;BME280;1813;52.016;8.714;2023-02-15T09:34:52;-16261.94;;;-139.71;62.03
3598;BME280;1813;52.016;8.714;2023-02-15T09:37:29;-16261.94;;;-139.71;61.59
3598;BME280;1813;52.016;8.714;2023-02-15T09:40:05;-16261.94;;;-139.71;61.81
3598;BME280;1813;52.016;8.714;2023-02-15T09:46:07;-16261.94;;;-139.71;60.60
3598;BME280;1813;52.016;8.714;2023-02-15T09:48:52;-16261.94;;;-139.71;60.76
3598;BME280;1813;52.016;8.714;2023-02-15T09:51:52;-16261.94;;;-139.71;60.39
3598;BME280;1813;52.016;8.714;2023-02-15T09:54:44;-16261.94;;;-139.71;60.57
3598;BME280;1813;52.016;8.714;2023-02-15T09:57:31;-16261.94;;;-139.71;59.30
3598;BME280;1813;52.016;8.714;2023-02-15T10:00:23;-16261.94;;;-139.71;58.65
3598;BME280;1813;52.016;8.714;2023-02-15T10:03:18;-16261.94;;;-139.71;58.12
3598;BME280;1813;52.016;8.714;2023-02-15T10:12:19;-16261.94;;;-139.71;58.46
3598;BME280;1813;52.016;8.714;2023-02-15T10:15:12;-16261.94;;;-139.71;58.66
3598;BME280;1813;52.016;8.714;2023-02-15T10:18:01;-16261.94;;;-139.71;59.43
3598;BME280;1813;52.016;8.714;2023-02-15T10:20:43;-16261.94;;;-139.71;59.46
3598;BME280;1813;52.016;8.714;2023-02-15T10:23:38;-16261.94;;;-139.71;58.97
3598;BME280;1813;52.016;8.714;2023-02-15T10:26:19;-16261.94;;;-139.71;59.11
3598;BME280;1813;52.016;8.714;2023-02-15T10:28:58;-16261.94;;;-139.71;58.83
3598;BME280;1813;52.016;8.714;2023-02-15T10:31:37;-16261.94;;;-139.71;58.50
3598;BME280;1813;52.016;8.714;2023-02-15T10:34:18;-16261.94;;;-139.71;58.04
3598;BME280;1813;52.016;8.714;2023-02-15T10:37:05;-16261.94;;;-139.71;58.09
3598;BME280;1813;52.016;8.714;2023-02-15T10:39:51;-16261.94;;;-139.71;58.36
3598;BME280;1813;52.016;8.714;2023-02-15T10:42:35;-16261.94;;;-139.71;57.83
3598;BME280;1813;52.016;8.714;2023-02-15T10:45:23;-16261.94;;;-139.71;58.45
3598;BME280;1813;52.016;8.714;2023-02-15T10:51:21;-16261.94;;;-139.71;58.51
3598;BME280;1813;52.016;8.714;2023-02-15T10:54:10;-16261.94;;;-139.71;58.36
3598;BME280;1813;52.016;8.714;2023-02-15T10:56:54;-16261.94;;;-139.71;57.07
3598;BME280;1813;52.016;8.714;2023-02-15T10:59:44;-16261.94;;;-139.71;56.28
3598;BME280;1813;52.016;8.714;2023-02-15T11:02:37;-16261.94;;;-139.71;55.88
3598;BME280;1813;52.016;8.714;2023-02-15T11:05:24;-16261.94;;;-139.71;56.21
3598;BME280;1813;52.016;8.714;2023-02-15T11:08:05;-16261.94;;;-139.71;56.44
3598;BME280;1813;52.016;8.714;2023-02-15T11:10:44;-16261.94;;;-139.71;55.61
3598;BME280;1813;52.016;8.714;2023-02-15T11:13:22;-16261.94;;;-139.71;55.54
3598;BME280;1813;52.016;8.714;2023-02-15T11:16:01;-16261.94;;;-139.71;54.13
3598;BME280;1813;52.016;8.714;2023-02-15T11:18:41;-16261.94;;;-139.71;54.23
3598;BME280;1813;52.016;8.714;2023-02-15T11:21:21;-16261.94;;;-139.71;54.00
3598;BME280;1813;52.016;8.714;2023-02-15T11:23:56;-16261.94;;;-139.71;54.21
3598;BME280;1813;52.016;8.714;2023-02-15T11:26:36;-16261.94;;;-139.71;54.12
3598;BME280;1813;52.016;8.714;2023-02-15T11:29:13;-16261.94;;;-139.71;54.26
3598;BME280;1813;52.016;8.714;2023-02-15T11:31:54;-16261.94;;;-139.71;55.36
3598;BME280;1813;52.016;8.714;2023-02-15T11:34:33;-16261.94;;;-139.71;54.06
3598;BME280;1813;52.016;8.714;2023-02-15T11:37:11;-16261.94;;;-139.71;54.13
3598;BME280;1813;52.016;8.714;2023-02-15T11:39:50;-16261.94;;;-139.71;53.66
3598;BME280;1813;52.016;8.714;2023-02-15T11:42:27;-16261.94;;;-139.71;53.30
3598;BME280;1813;52.016;8.714;2023-02-15T11:45:14;-16261.94;;;-139.71;52.77
3598;BME280;1813;52.016;8.714;2023-02-15T11:47:53;-16261.94;;;-139.71;53.01
3598;BME280;1813;52.016;8.714;2023-02-15T11:50:32;-16261.94;;;-139.71;51.64
3598;BME280;1813;52.016;8.714;2023-02-15T11:53:11;-16261.94;;;-139.71;51.20
3598;BME280;1813;52.016;8.714;2023-02-15T11:55:47;-16261.94;;;-139.71;50.67
3598;BME280;1813;52.016;8.714;2023-02-15T11:58:29;-16261.94;;;-139.71;50.25
3598;BME280;1813;52.016;8.714;2023-02-15T12:01:10;-16261.94;;;-139.71;49.32
3598;BME280;1813;52.016;8.714;2023-02-15T12:03:50;-16261.94;;;-139.71;48.47
3598;BME280;1813;52.016;8.714;2023-02-15T12:06:30;-16261.94;;;-139.71;49.14
3598;BME280;1813;52.016;8.714;2023-02-15T12:09:13;-16261.94;;;-139.71;48.26
3598;BME280;1813;52.016;8.714;2023-02-15T12:11:52;-16261.94;;;-139.71;47.33
3598;BME280;1813;52.016;8.714;2023-02-15T12:14:46;-16261.94;;;-139.71;47.17
3598;BME280;1813;52.016;8.714;2023-02-15T12:17:21;-16261.94;;;-139.71;46.72
3598;BME280;1813;52.016;8.714;2023-02-15T12:19:57;-16261.94;;;-139.71;46.27
3598;BME280;1813;52.016;8.714;2023-02-15T12:22:40;-16261.94;;;-139.71;45.72
3598;BME280;1813;52.016;8.714;2023-02-15T12:25:22;-16261.94;;;-139.71;45.54
3598;BME280;1813;52.016;8.714;2023-02-15T12:28:03;-16261.94;;;-139.71;45.84
3598;BME280;1813;52.016;8.714;2023-02-15T12:30:43;-16261.94;;;-139.71;46.39
3598;BME280;1813;52.016;8.714;2023-02-15T12:33:26;-16261.94;;;-139.71;45.72
3598;BME280;1813;52.016;8.714;2023-02-15T12:36:10;-16261.94;;;-139.71;45.84
3598;BME280;1813;52.016;8.714;2023-02-15T12:39:19;-16261.94;;;-139.71;46.45
3598;BME280;1813;52.016;8.714;2023-02-15T12:42:13;-16261.94;;;-139.71;46.65
3598;BME280;1813;52.016;8.714;2023-02-15T12:45:00;-16261.94;;;-139.71;46.27
3598;BME280;1813;52.016;8.714;2023-02-15T12:47:38;-16261.94;;;-139.71;46.39
3598;BME280;1813;52.016;8.714;2023-02-15T12:50:21;-16261.94;;;-139.71;46.32
3598;BME280;1813;52.016;8.714;2023-02-15T12:53:08;-16261.94;;;-139.71;46.39
3598;BME280;1813;52.016;8.714;2023-02-15T12:55:54;-16261.94;;;-139.71;46.43
3598;BME280;1813;52.016;8.714;2023-02-15T12:58:30;-16261.94;;;-139.71;47.27
3598;BME280;1813;52.016;8.714;2023-02-15T13:01:12;-16261.94;;;-139.71;46.65
3598;BME280;1813;52.016;8.714;2023-02-15T13:03:58;-16261.94;;;-139.71;45.93
3598;BME280;1813;52.016;8.714;2023-02-15T13:06:34;-16261.94;;;-139.71;45.53
3598;BME280;1813;52.016;8.714;2023-02-15T13:09:15;-16261.94;;;-139.71;45.84
3598;BME280;1813;52.016;8.714;2023-02-15T13:11:52;-16261.94;;;-139.71;45.79
3598;BME280;1813;52.016;8.714;2023-02-15T13:14:32;-16261.94;;;-139.71;46.90
3598;BME280;1813;52.016;8.714;2023-02-15T13:17:08;-16261.94;;;-139.71;48.76
3598;BME280;1813;52.016;8.714;2023-02-15T13:19:46;-16261.94;;;-139.71;48.75
3598;BME280;1813;52.016;8.714;2023-02-15T13:22:25;-16261.94;;;-139.71;49.22
3598;BME280;1813;52.016;8.714;2023-02-15T13:25:04;-16261.94;;;-139.71;49.81
3598;BME280;1813;52.016;8.714;2023-02-15T13:27:50;-16261.94;;;-139.71;49.84
3598;BME280;1813;52.016;8.714;2023-02-15T13:30:27;-16261.94;;;-139.71;50.25
3598;BME280;1813;52.016;8.714;2023-02-15T13:33:06;-16261.94;;;-139.71;50.73
3598;BME280;1813;52.016;8.714;2023-02-15T13:35:44;-16261.94;;;-139.71;50.91
3598;BME280;1813;52.016;8.714;2023-02-15T13:41:32;-16261.94;;;-139.71;50.28
3598;BME280;1813;52.016;8.714;2023-02-15T13:44:17;-16261.94;;;-139.71;50.00
3598;BME280;1813;52.016;8.714;2023-02-15T13:47:01;-16261.94;;;-139.71;50.04
3598;BME280;1813;52.016;8.714;2023-02-15T13:49:50;-16261.94;;;-139.71;49.89
3598;BME280;1813;52.016;8.714;2023-02-15T13:52:35;-16261.94;;;-139.71;50.22
3598;BME280;1813;52.016;8.714;2023-02-15T13:55:32;-16261.94;;;-139.71;50.09
3598;BME280;1813;52.016;8.714;2023-02-15T13:58:44;-16261.94;;;-139.71;50.43
3598;BME280;1813;52.016;8.714;2023-02-15T14:01:30;-16261.94;;;-139.71;49.88
3598;BME280;1813;52.016;8.714;2023-02-15T14:04:26;-16261.94;;;-139.71;49.81
3598;BME280;1813;52.016;8.714;2023-02-15T14:07:19;-16261.94;;;-139.71;49.46